ANA583 RJFM-RJKA
Flight info
| Callsign | ANA583 |
|---|---|
| Flight time | 0h 44m |
| Altitude | 34000 |
| Route | JACKY B597 TUMGI |
| Aircraft | B789/H-SDE1E2E3FGHIJ2J3J4J5M1RWXY/LB1D1 |
Departure
| Time | 2026-05-07 17:57 |
|---|---|
| Airport | Miyazaki Airport (RJFM) |
Arrival
| Time | 2026-05-07 18:41 |
|---|---|
| Airport | Amami Airport (RJKA) |
| Time | Latitude | Longitude | Altitude | Speed | Heading |
|---|---|---|---|---|---|
| 2026-05-07 17:49 | 31.87477 | 131.44177 | 35 ft | 4 kts | 132° |
| 2026-05-07 17:49 | 31.87486 | 131.44165 | 36 ft | 1 kts | 132° |
| 2026-05-07 17:49 | 31.87487 | 131.44164 | 36 ft | 0 kts | 132° |
| 2026-05-07 17:51 | 31.87484 | 131.44169 | 36 ft | 5 kts | 122° |
| 2026-05-07 17:51 | 31.87500 | 131.44292 | 38 ft | 21 kts | 82° |
| 2026-05-07 17:51 | 31.87516 | 131.44471 | 38 ft | 23 kts | 84° |
| 2026-05-07 17:51 | 31.87528 | 131.44666 | 38 ft | 25 kts | 85° |
| 2026-05-07 17:52 | 31.87543 | 131.44877 | 39 ft | 27 kts | 85° |
| 2026-05-07 17:52 | 31.87561 | 131.45120 | 39 ft | 31 kts | 85° |
| 2026-05-07 17:52 | 31.87580 | 131.45375 | 39 ft | 32 kts | 85° |
| 2026-05-07 17:52 | 31.87600 | 131.45637 | 39 ft | 33 kts | 85° |
| 2026-05-07 17:53 | 31.87619 | 131.45904 | 39 ft | 29 kts | 86° |
| 2026-05-07 17:53 | 31.87629 | 131.46068 | 39 ft | 17 kts | 85° |
| 2026-05-07 17:53 | 31.87691 | 131.46163 | 39 ft | 14 kts | 5° |
| 2026-05-07 17:53 | 31.87767 | 131.46152 | 40 ft | 9 kts | 345° |
| 2026-05-07 17:54 | 31.87795 | 131.46106 | 41 ft | 8 kts | 281° |
| 2026-05-07 17:54 | 31.87795 | 131.46093 | 41 ft | 0 kts | 268° |
| 2026-05-07 17:55 | 31.87795 | 131.46085 | 41 ft | 2 kts | 268° |
| 2026-05-07 17:55 | 31.87793 | 131.46057 | 41 ft | 5 kts | 265° |
| 2026-05-07 17:56 | 31.87792 | 131.46036 | 41 ft | 0 kts | 265° |
| 2026-05-07 17:56 | 31.87789 | 131.45990 | 40 ft | 34 kts | 265° |
| 2026-05-07 17:56 | 31.87740 | 131.45311 | 39 ft | 129 kts | 265° |
| 2026-05-07 17:56 | 31.87630 | 131.44025 | 376 ft | 172 kts | 259° |
| 2026-05-07 17:57 | 31.87474 | 131.42609 | 915 ft | 183 kts | 263° |
| 2026-05-07 17:57 | 31.87391 | 131.41590 | 1121 ft | 193 kts | 266° |
| 2026-05-07 17:57 | 31.87318 | 131.39396 | 1601 ft | 210 kts | 269° |
| 2026-05-07 17:57 | 31.87788 | 131.37693 | 1823 ft | 236 kts | 303° |
| 2026-05-07 17:58 | 31.89081 | 131.36455 | 2517 ft | 251 kts | 333° |
| 2026-05-07 17:58 | 31.90861 | 131.36304 | 3328 ft | 269 kts | 6° |
| 2026-05-07 17:58 | 31.92544 | 131.37372 | 4102 ft | 287 kts | 40° |
| 2026-05-07 17:58 | 31.93578 | 131.39402 | 4835 ft | 297 kts | 73° |
| 2026-05-07 17:59 | 31.93597 | 131.41797 | 5653 ft | 294 kts | 107° |
| 2026-05-07 17:59 | 31.92605 | 131.43839 | 6482 ft | 286 kts | 139° |
| 2026-05-07 17:59 | 31.90920 | 131.44950 | 7255 ft | 276 kts | 171° |
| 2026-05-07 17:59 | 31.89039 | 131.45011 | 8079 ft | 269 kts | 188° |
| 2026-05-07 18:00 | 31.87156 | 131.45361 | 8673 ft | 287 kts | 160° |
| 2026-05-07 18:00 | 31.85457 | 131.46628 | 9510 ft | 295 kts | 144° |
| 2026-05-07 18:00 | 31.84050 | 131.48423 | 10261 ft | 303 kts | 132° |
| 2026-05-07 18:00 | 31.82743 | 131.50438 | 10729 ft | 317 kts | 131° |
| 2026-05-07 18:01 | 31.81326 | 131.52491 | 11154 ft | 330 kts | 135° |
| 2026-05-07 18:01 | 31.79761 | 131.54492 | 11599 ft | 343 kts | 138° |
| 2026-05-07 18:01 | 31.78096 | 131.56590 | 12010 ft | 359 kts | 137° |
| 2026-05-07 18:01 | 31.76400 | 131.58827 | 12417 ft | 374 kts | 136° |
| 2026-05-07 18:02 | 31.72819 | 131.63590 | 13125 ft | 404 kts | 136° |
| 2026-05-07 18:02 | 31.70902 | 131.66086 | 13430 ft | 419 kts | 136° |
| 2026-05-07 18:02 | 31.68933 | 131.68665 | 13891 ft | 428 kts | 136° |
| 2026-05-07 18:03 | 31.66945 | 131.71287 | 14466 ft | 432 kts | 136° |
| 2026-05-07 18:03 | 31.64936 | 131.73926 | 15038 ft | 435 kts | 136° |
| 2026-05-07 18:03 | 31.62731 | 131.76333 | 15494 ft | 432 kts | 149° |
| 2026-05-07 18:03 | 31.60168 | 131.78137 | 16027 ft | 428 kts | 160° |
| 2026-05-07 18:04 | 31.57388 | 131.79300 | 16585 ft | 423 kts | 170° |
| 2026-05-07 18:04 | 31.54495 | 131.79807 | 17151 ft | 418 kts | 181° |
| 2026-05-07 18:04 | 31.51609 | 131.79662 | 17694 ft | 414 kts | 192° |
| 2026-05-07 18:04 | 31.48820 | 131.78886 | 18226 ft | 411 kts | 202° |
| 2026-05-07 18:05 | 31.46222 | 131.77520 | 18672 ft | 409 kts | 212° |
| 2026-05-07 18:05 | 31.43889 | 131.75623 | 19101 ft | 409 kts | 221° |
| 2026-05-07 18:05 | 31.41658 | 131.73540 | 19513 ft | 412 kts | 221° |
| 2026-05-07 18:05 | 31.39404 | 131.71452 | 19957 ft | 415 kts | 220° |
| 2026-05-07 18:06 | 31.37128 | 131.69357 | 20401 ft | 418 kts | 220° |
| 2026-05-07 18:06 | 31.34837 | 131.67251 | 20826 ft | 420 kts | 221° |
| 2026-05-07 18:06 | 31.32532 | 131.65126 | 21240 ft | 423 kts | 221° |
| 2026-05-07 18:06 | 31.30213 | 131.62988 | 21627 ft | 426 kts | 221° |
| 2026-05-07 18:07 | 31.27876 | 131.60838 | 22004 ft | 429 kts | 221° |
| 2026-05-07 18:07 | 31.25522 | 131.58675 | 22381 ft | 432 kts | 221° |
| 2026-05-07 18:07 | 31.23152 | 131.56498 | 22765 ft | 434 kts | 221° |
| 2026-05-07 18:07 | 31.20772 | 131.54311 | 23172 ft | 436 kts | 221° |
| 2026-05-07 18:08 | 31.18379 | 131.52113 | 23521 ft | 439 kts | 221° |
| 2026-05-07 18:08 | 31.15973 | 131.49905 | 23815 ft | 441 kts | 221° |
| 2026-05-07 18:08 | 31.13549 | 131.47682 | 24095 ft | 444 kts | 221° |
| 2026-05-07 18:08 | 31.11115 | 131.45451 | 24381 ft | 446 kts | 221° |
| 2026-05-07 18:09 | 31.08669 | 131.43210 | 24680 ft | 448 kts | 221° |
| 2026-05-07 18:09 | 31.06220 | 131.40968 | 25056 ft | 448 kts | 221° |
| 2026-05-07 18:09 | 31.03773 | 131.38729 | 25455 ft | 447 kts | 221° |
| 2026-05-07 18:09 | 31.01325 | 131.36491 | 25857 ft | 447 kts | 221° |
| 2026-05-07 18:10 | 30.98878 | 131.34255 | 26277 ft | 446 kts | 221° |
| 2026-05-07 18:10 | 30.96436 | 131.32025 | 26714 ft | 446 kts | 221° |
| 2026-05-07 18:10 | 30.94029 | 131.29828 | 27154 ft | 445 kts | 221° |
| 2026-05-07 18:10 | 30.91594 | 131.27608 | 27624 ft | 444 kts | 222° |
| 2026-05-07 18:11 | 30.89160 | 131.25390 | 28093 ft | 444 kts | 222° |
| 2026-05-07 18:11 | 30.87520 | 131.23896 | 28419 ft | 444 kts | 222° |
| 2026-05-07 18:11 | 30.84300 | 131.20965 | 29073 ft | 443 kts | 222° |
| 2026-05-07 18:11 | 30.81876 | 131.18760 | 29586 ft | 442 kts | 222° |
| 2026-05-07 18:12 | 30.79460 | 131.16564 | 30160 ft | 440 kts | 222° |
| 2026-05-07 18:12 | 30.77054 | 131.14379 | 30637 ft | 438 kts | 222° |
| 2026-05-07 18:12 | 30.74653 | 131.12199 | 31118 ft | 437 kts | 222° |
| 2026-05-07 18:12 | 30.72259 | 131.10032 | 31598 ft | 436 kts | 222° |
| 2026-05-07 18:13 | 30.69871 | 131.07876 | 32118 ft | 434 kts | 222° |
| 2026-05-07 18:13 | 30.67489 | 131.05724 | 32641 ft | 432 kts | 222° |
| 2026-05-07 18:13 | 30.65096 | 131.03560 | 33155 ft | 430 kts | 222° |
| 2026-05-07 18:13 | 30.62769 | 131.01458 | 33597 ft | 431 kts | 222° |
| 2026-05-07 18:14 | 30.60359 | 130.99353 | 33878 ft | 436 kts | 218° |
| 2026-05-07 18:14 | 30.54949 | 130.95964 | 33956 ft | 441 kts | 212° |
| 2026-05-07 18:15 | 30.49537 | 130.92696 | 33956 ft | 437 kts | 213° |
| 2026-05-07 18:15 | 30.44133 | 130.89423 | 33961 ft | 439 kts | 213° |
| 2026-05-07 18:16 | 30.38709 | 130.86158 | 33965 ft | 439 kts | 213° |
| 2026-05-07 18:16 | 30.33291 | 130.82890 | 33944 ft | 439 kts | 213° |
| 2026-05-07 18:17 | 30.27877 | 130.79636 | 33965 ft | 438 kts | 213° |
| 2026-05-07 18:17 | 30.22480 | 130.76392 | 33962 ft | 439 kts | 213° |
| 2026-05-07 18:18 | 30.17061 | 130.73142 | 33963 ft | 439 kts | 213° |
| 2026-05-07 18:18 | 30.11649 | 130.69899 | 33964 ft | 438 kts | 214° |
| 2026-05-07 18:19 | 30.06243 | 130.66662 | 33965 ft | 438 kts | 213° |
| 2026-05-07 18:19 | 30.00833 | 130.63430 | 33968 ft | 438 kts | 213° |
| 2026-05-07 18:20 | 29.95425 | 130.60203 | 33974 ft | 437 kts | 214° |
| 2026-05-07 18:20 | 29.92754 | 130.58614 | 33562 ft | 430 kts | 214° |
| 2026-05-07 18:20 | 29.90104 | 130.57035 | 32844 ft | 427 kts | 214° |
| 2026-05-07 18:20 | 29.87476 | 130.55467 | 32199 ft | 424 kts | 214° |
| 2026-05-07 18:21 | 29.84868 | 130.53914 | 31589 ft | 422 kts | 213° |
| 2026-05-07 18:21 | 29.82261 | 130.52363 | 30995 ft | 424 kts | 213° |
| 2026-05-07 18:21 | 29.79609 | 130.50783 | 30341 ft | 432 kts | 213° |
| 2026-05-07 18:21 | 29.76918 | 130.49184 | 29641 ft | 438 kts | 213° |
| 2026-05-07 18:22 | 29.74205 | 130.47578 | 28888 ft | 439 kts | 213° |
| 2026-05-07 18:22 | 29.72407 | 130.46514 | 28396 ft | 439 kts | 213° |
| 2026-05-07 18:22 | 29.68769 | 130.44355 | 27379 ft | 441 kts | 213° |
| 2026-05-07 18:22 | 29.66044 | 130.42737 | 26577 ft | 443 kts | 212° |
| 2026-05-07 18:23 | 29.63294 | 130.41109 | 25774 ft | 444 kts | 212° |
| 2026-05-07 18:23 | 29.60563 | 130.39498 | 24960 ft | 439 kts | 212° |
| 2026-05-07 18:23 | 29.57864 | 130.37903 | 24170 ft | 434 kts | 212° |
| 2026-05-07 18:23 | 29.55197 | 130.36325 | 23356 ft | 430 kts | 212° |
| 2026-05-07 18:24 | 29.52552 | 130.34760 | 22488 ft | 424 kts | 212° |
| 2026-05-07 18:24 | 29.49947 | 130.33224 | 21695 ft | 418 kts | 212° |
| 2026-05-07 18:24 | 29.47382 | 130.31712 | 20931 ft | 411 kts | 211° |
| 2026-05-07 18:24 | 29.44862 | 130.30225 | 20184 ft | 405 kts | 211° |
| 2026-05-07 18:25 | 29.42376 | 130.28758 | 19459 ft | 398 kts | 211° |
| 2026-05-07 18:25 | 29.39932 | 130.27318 | 18765 ft | 393 kts | 211° |
| 2026-05-07 18:25 | 29.37546 | 130.25914 | 18045 ft | 388 kts | 211° |
| 2026-05-07 18:25 | 29.35158 | 130.24508 | 17291 ft | 384 kts | 211° |
| 2026-05-07 18:26 | 29.32787 | 130.23113 | 16575 ft | 382 kts | 210° |
| 2026-05-07 18:26 | 29.30397 | 130.21708 | 15879 ft | 381 kts | 210° |
| 2026-05-07 18:26 | 29.28046 | 130.20327 | 15200 ft | 377 kts | 210° |
| 2026-05-07 18:26 | 29.25734 | 130.18972 | 14514 ft | 370 kts | 209° |
| 2026-05-07 18:27 | 29.23445 | 130.17629 | 13874 ft | 370 kts | 209° |
| 2026-05-07 18:27 | 29.21150 | 130.16283 | 13154 ft | 371 kts | 209° |
| 2026-05-07 18:27 | 29.18852 | 130.14935 | 12429 ft | 373 kts | 208° |
| 2026-05-07 18:27 | 29.17321 | 130.14043 | 12002 ft | 371 kts | 209° |
| 2026-05-07 18:28 | 29.14301 | 130.12276 | 11196 ft | 358 kts | 210° |
| 2026-05-07 18:28 | 29.12138 | 130.11009 | 10925 ft | 340 kts | 210° |
| 2026-05-07 18:28 | 29.10772 | 130.10211 | 10839 ft | 326 kts | 210° |
| 2026-05-07 18:28 | 29.08813 | 130.09068 | 10697 ft | 307 kts | 210° |
| 2026-05-07 18:29 | 29.06968 | 130.07989 | 10547 ft | 290 kts | 210° |
| 2026-05-07 18:29 | 29.04673 | 130.06646 | 10362 ft | 270 kts | 210° |
| 2026-05-07 18:29 | 29.03038 | 130.05692 | 10167 ft | 262 kts | 210° |
| 2026-05-07 18:29 | 29.01407 | 130.04736 | 9928 ft | 265 kts | 210° |
| 2026-05-07 18:30 | 28.99763 | 130.03776 | 9666 ft | 266 kts | 210° |
| 2026-05-07 18:30 | 28.98124 | 130.02822 | 9396 ft | 261 kts | 210° |
| 2026-05-07 18:30 | 28.97034 | 130.02189 | 9225 ft | 261 kts | 211° |
| 2026-05-07 18:30 | 28.95413 | 130.01241 | 8971 ft | 263 kts | 211° |
| 2026-05-07 18:31 | 28.93781 | 130.00289 | 8711 ft | 263 kts | 210° |
| 2026-05-07 18:31 | 28.92163 | 129.99348 | 8461 ft | 257 kts | 210° |
| 2026-05-07 18:31 | 28.90573 | 129.98423 | 8206 ft | 258 kts | 210° |
| 2026-05-07 18:31 | 28.88963 | 129.97484 | 7957 ft | 259 kts | 210° |
| 2026-05-07 18:32 | 28.87356 | 129.96548 | 7705 ft | 260 kts | 210° |
| 2026-05-07 18:32 | 28.85769 | 129.95627 | 7447 ft | 253 kts | 210° |
| 2026-05-07 18:32 | 28.84191 | 129.94708 | 7197 ft | 256 kts | 210° |
| 2026-05-07 18:32 | 28.82597 | 129.93781 | 6940 ft | 258 kts | 210° |
| 2026-05-07 18:33 | 28.80999 | 129.92854 | 6686 ft | 255 kts | 210° |
| 2026-05-07 18:33 | 28.79435 | 129.91946 | 6433 ft | 252 kts | 210° |
| 2026-05-07 18:33 | 28.77862 | 129.91031 | 6165 ft | 255 kts | 210° |
| 2026-05-07 18:33 | 28.76279 | 129.90111 | 5895 ft | 256 kts | 210° |
| 2026-05-07 18:34 | 28.74717 | 129.89207 | 5621 ft | 249 kts | 210° |
| 2026-05-07 18:34 | 28.73187 | 129.88319 | 5365 ft | 251 kts | 210° |
| 2026-05-07 18:34 | 28.71626 | 129.87408 | 5108 ft | 252 kts | 210° |
| 2026-05-07 18:34 | 28.70046 | 129.86481 | 4839 ft | 251 kts | 210° |
| 2026-05-07 18:35 | 28.68534 | 129.85598 | 4564 ft | 246 kts | 210° |
| 2026-05-07 18:35 | 28.66999 | 129.84700 | 4302 ft | 250 kts | 210° |
| 2026-05-07 18:35 | 28.65434 | 129.83787 | 4055 ft | 247 kts | 210° |
| 2026-05-07 18:35 | 28.63959 | 129.82928 | 3804 ft | 234 kts | 210° |
| 2026-05-07 18:36 | 28.62565 | 129.82117 | 3615 ft | 216 kts | 210° |
| 2026-05-07 18:36 | 28.61294 | 129.81375 | 3492 ft | 196 kts | 210° |
| 2026-05-07 18:36 | 28.60134 | 129.80699 | 3372 ft | 179 kts | 210° |
| 2026-05-07 18:36 | 28.59067 | 129.80079 | 3237 ft | 166 kts | 210° |
| 2026-05-07 18:37 | 28.58012 | 129.79534 | 2990 ft | 167 kts | 208° |
| 2026-05-07 18:37 | 28.56970 | 129.78930 | 2779 ft | 169 kts | 210° |
| 2026-05-07 18:37 | 28.55912 | 129.78332 | 2570 ft | 170 kts | 209° |
| 2026-05-07 18:37 | 28.54846 | 129.77744 | 2353 ft | 170 kts | 208° |
| 2026-05-07 18:38 | 28.53800 | 129.77169 | 2136 ft | 166 kts | 208° |
| 2026-05-07 18:38 | 28.52766 | 129.76599 | 1922 ft | 165 kts | 208° |
| 2026-05-07 18:38 | 28.51731 | 129.76029 | 1701 ft | 165 kts | 208° |
| 2026-05-07 18:38 | 28.50704 | 129.75462 | 1485 ft | 162 kts | 208° |
| 2026-05-07 18:39 | 28.49741 | 129.74933 | 1288 ft | 146 kts | 207° |
| 2026-05-07 18:39 | 28.48847 | 129.74440 | 1076 ft | 140 kts | 207° |
| 2026-05-07 18:39 | 28.47988 | 129.73967 | 904 ft | 139 kts | 207° |
| 2026-05-07 18:39 | 28.47119 | 129.73493 | 721 ft | 137 kts | 207° |
| 2026-05-07 18:40 | 28.46253 | 129.73021 | 561 ft | 140 kts | 207° |
| 2026-05-07 18:40 | 28.45383 | 129.72552 | 385 ft | 137 kts | 208° |
| 2026-05-07 18:40 | 28.44524 | 129.72065 | 223 ft | 138 kts | 208° |
| 2026-05-07 18:40 | 28.43654 | 129.71581 | 71 ft | 137 kts | 207° |
| 2026-05-07 18:41 | 28.42917 | 129.71174 | 54 ft | 79 kts | 206° |
| 2026-05-07 18:41 | 28.42695 | 129.71051 | 56 ft | 14 kts | 210° |
| 2026-05-07 18:41 | 28.42676 | 129.71004 | 53 ft | 7 kts | 276° |
| 2026-05-07 18:41 | 28.42700 | 129.70941 | 60 ft | 12 kts | 296° |
| 2026-05-07 18:42 | 28.42746 | 129.70886 | 58 ft | 8 kts | 348° |
| 2026-05-07 18:42 | 28.42800 | 129.70902 | 57 ft | 9 kts | 23° |
| 2026-05-07 18:42 | 28.42866 | 129.70935 | 57 ft | 12 kts | 23° |
| 2026-05-07 18:42 | 28.42934 | 129.70971 | 59 ft | 8 kts | 28° |
| 2026-05-07 18:43 | 28.42982 | 129.71000 | 55 ft | 6 kts | 27° |
| 2026-05-07 18:43 | 28.43026 | 129.71025 | 55 ft | 8 kts | 27° |
| 2026-05-07 18:43 | 28.43053 | 129.71028 | 57 ft | 4 kts | 336° |
| 2026-05-07 18:43 | 28.43082 | 129.70982 | 55 ft | 11 kts | 298° |
| 2026-05-07 18:44 | 28.43111 | 129.70918 | 55 ft | 0 kts | 297° |